sensor_id;sensor_type;location;lat;lon;timestamp;P1;durP1;ratioP1;P2;durP2;ratioP2
8050;SDS011;4068;42.158;24.732;2022-08-19T00:01:53;16.48;;;7.47;;
8050;SDS011;4068;42.158;24.732;2022-08-19T00:04:22;9.68;;;7.47;;
8050;SDS011;4068;42.158;24.732;2022-08-19T00:06:53;8.68;;;7.20;;
8050;SDS011;4068;42.158;24.732;2022-08-19T00:09:19;12.30;;;7.20;;
8050;SDS011;4068;42.158;24.732;2022-08-19T00:11:46;10.30;;;6.97;;
8050;SDS011;4068;42.158;24.732;2022-08-19T00:14:13;8.35;;;6.55;;
8050;SDS011;4068;42.158;24.732;2022-08-19T00:16:40;11.15;;;6.97;;
8050;SDS011;4068;42.158;24.732;2022-08-19T00:19:08;9.68;;;7.18;;
8050;SDS011;4068;42.158;24.732;2022-08-19T00:21:34;13.85;;;6.93;;
8050;SDS011;4068;42.158;24.732;2022-08-19T00:24:05;9.75;;;7.03;;
8050;SDS011;4068;42.158;24.732;2022-08-19T00:26:32;10.40;;;6.47;;
8050;SDS011;4068;42.158;24.732;2022-08-19T00:28:58;10.27;;;7.20;;
8050;SDS011;4068;42.158;24.732;2022-08-19T00:31:24;10.48;;;6.70;;
8050;SDS011;4068;42.158;24.732;2022-08-19T00:33:52;8.95;;;6.65;;
8050;SDS011;4068;42.158;24.732;2022-08-19T00:36:17;11.38;;;6.93;;
8050;SDS011;4068;42.158;24.732;2022-08-19T00:38:42;11.02;;;7.13;;
8050;SDS011;4068;42.158;24.732;2022-08-19T00:41:18;10.55;;;7.28;;
8050;SDS011;4068;42.158;24.732;2022-08-19T00:46:29;11.43;;;7.05;;
8050;SDS011;4068;42.158;24.732;2022-08-19T00:48:55;8.98;;;6.97;;
8050;SDS011;4068;42.158;24.732;2022-08-19T00:51:22;8.85;;;7.10;;
8050;SDS011;4068;42.158;24.732;2022-08-19T00:53:54;9.05;;;7.15;;
8050;SDS011;4068;42.158;24.732;2022-08-19T00:56:22;9.70;;;7.80;;
8050;SDS011;4068;42.158;24.732;2022-08-19T00:58:48;8.40;;;7.35;;
8050;SDS011;4068;42.158;24.732;2022-08-19T01:01:14;7.90;;;7.07;;
8050;SDS011;4068;42.158;24.732;2022-08-19T01:03:40;9.77;;;7.45;;
8050;SDS011;4068;42.158;24.732;2022-08-19T01:06:06;9.23;;;7.22;;
8050;SDS011;4068;42.158;24.732;2022-08-19T01:08:33;14.18;;;6.80;;
8050;SDS011;4068;42.158;24.732;2022-08-19T01:10:59;10.90;;;7.20;;
8050;SDS011;4068;42.158;24.732;2022-08-19T01:13:29;12.95;;;8.18;;
8050;SDS011;4068;42.158;24.732;2022-08-19T01:16:01;8.82;;;7.20;;
8050;SDS011;4068;42.158;24.732;2022-08-19T01:18:38;9.57;;;6.85;;
8050;SDS011;4068;42.158;24.732;2022-08-19T01:21:08;8.55;;;6.47;;
8050;SDS011;4068;42.158;24.732;2022-08-19T01:23:40;16.38;;;7.55;;
8050;SDS011;4068;42.158;24.732;2022-08-19T01:26:15;11.38;;;7.13;;
8050;SDS011;4068;42.158;24.732;2022-08-19T01:28:43;9.80;;;7.13;;
8050;SDS011;4068;42.158;24.732;2022-08-19T01:31:13;12.68;;;7.55;;
8050;SDS011;4068;42.158;24.732;2022-08-19T01:33:40;8.48;;;7.50;;
8050;SDS011;4068;42.158;24.732;2022-08-19T01:36:10;10.82;;;7.72;;
8050;SDS011;4068;42.158;24.732;2022-08-19T01:38:38;11.98;;;7.38;;
8050;SDS011;4068;42.158;24.732;2022-08-19T01:41:07;10.38;;;7.63;;
8050;SDS011;4068;42.158;24.732;2022-08-19T01:43:34;9.90;;;7.63;;
8050;SDS011;4068;42.158;24.732;2022-08-19T01:45:59;14.52;;;8.18;;
8050;SDS011;4068;42.158;24.732;2022-08-19T01:48:25;8.55;;;7.47;;
8050;SDS011;4068;42.158;24.732;2022-08-19T01:50:51;9.77;;;7.55;;
8050;SDS011;4068;42.158;24.732;2022-08-19T01:53:17;12.25;;;8.43;;
8050;SDS011;4068;42.158;24.732;2022-08-19T01:55:42;9.07;;;7.70;;
8050;SDS011;4068;42.158;24.732;2022-08-19T01:58:24;10.20;;;9.10;;
8050;SDS011;4068;42.158;24.732;2022-08-19T02:00:55;13.73;;;8.65;;
8050;SDS011;4068;42.158;24.732;2022-08-19T02:03:22;10.85;;;8.60;;
8050;SDS011;4068;42.158;24.732;2022-08-19T02:05:48;9.77;;;8.15;;
8050;SDS011;4068;42.158;24.732;2022-08-19T02:08:19;10.45;;;8.57;;
8050;SDS011;4068;42.158;24.732;2022-08-19T02:10:45;10.18;;;8.45;;
8050;SDS011;4068;42.158;24.732;2022-08-19T02:13:11;15.35;;;8.30;;
8050;SDS011;4068;42.158;24.732;2022-08-19T02:15:38;13.43;;;8.63;;
8050;SDS011;4068;42.158;24.732;2022-08-19T02:18:04;14.32;;;9.18;;
8050;SDS011;4068;42.158;24.732;2022-08-19T02:20:30;11.45;;;8.88;;
8050;SDS011;4068;42.158;24.732;2022-08-19T02:22:55;13.13;;;9.45;;
8050;SDS011;4068;42.158;24.732;2022-08-19T02:25:21;11.88;;;8.73;;
8050;SDS011;4068;42.158;24.732;2022-08-19T02:27:46;10.93;;;8.48;;
8050;SDS011;4068;42.158;24.732;2022-08-19T02:30:13;15.43;;;9.30;;
8050;SDS011;4068;42.158;24.732;2022-08-19T02:32:41;11.88;;;9.02;;
8050;SDS011;4068;42.158;24.732;2022-08-19T02:35:07;12.68;;;8.48;;
8050;SDS011;4068;42.158;24.732;2022-08-19T02:37:32;13.38;;;9.00;;
8050;SDS011;4068;42.158;24.732;2022-08-19T02:40:17;12.82;;;9.25;;
8050;SDS011;4068;42.158;24.732;2022-08-19T02:42:43;12.90;;;9.48;;
8050;SDS011;4068;42.158;24.732;2022-08-19T02:45:08;14.85;;;9.63;;
8050;SDS011;4068;42.158;24.732;2022-08-19T02:47:34;12.57;;;8.88;;
8050;SDS011;4068;42.158;24.732;2022-08-19T02:50:01;19.70;;;9.07;;
8050;SDS011;4068;42.158;24.732;2022-08-19T02:52:27;13.60;;;8.90;;
8050;SDS011;4068;42.158;24.732;2022-08-19T02:54:53;15.35;;;8.65;;
8050;SDS011;4068;42.158;24.732;2022-08-19T02:57:20;16.42;;;9.35;;
8050;SDS011;4068;42.158;24.732;2022-08-19T02:59:45;17.02;;;9.50;;
8050;SDS011;4068;42.158;24.732;2022-08-19T03:02:11;15.10;;;9.50;;
8050;SDS011;4068;42.158;24.732;2022-08-19T03:04:36;17.35;;;10.07;;
8050;SDS011;4068;42.158;24.732;2022-08-19T03:07:02;16.98;;;8.75;;
8050;SDS011;4068;42.158;24.732;2022-08-19T03:09:27;16.58;;;9.15;;
8050;SDS011;4068;42.158;24.732;2022-08-19T03:11:54;11.75;;;8.43;;
8050;SDS011;4068;42.158;24.732;2022-08-19T03:14:20;13.95;;;9.45;;
8050;SDS011;4068;42.158;24.732;2022-08-19T03:16:47;17.77;;;9.93;;
8050;SDS011;4068;42.158;24.732;2022-08-19T03:19:15;13.82;;;9.65;;
8050;SDS011;4068;42.158;24.732;2022-08-19T03:21:43;16.95;;;9.02;;
8050;SDS011;4068;42.158;24.732;2022-08-19T03:24:09;21.05;;;10.55;;
8050;SDS011;4068;42.158;24.732;2022-08-19T03:26:43;20.05;;;9.93;;
8050;SDS011;4068;42.158;24.732;2022-08-19T03:29:10;14.45;;;9.77;;
8050;SDS011;4068;42.158;24.732;2022-08-19T03:31:37;13.30;;;9.95;;
8050;SDS011;4068;42.158;24.732;2022-08-19T03:34:03;15.65;;;10.30;;
8050;SDS011;4068;42.158;24.732;2022-08-19T03:36:29;19.42;;;9.95;;
8050;SDS011;4068;42.158;24.732;2022-08-19T03:38:56;19.27;;;10.23;;
8050;SDS011;4068;42.158;24.732;2022-08-19T03:41:24;15.98;;;10.30;;
8050;SDS011;4068;42.158;24.732;2022-08-19T03:43:52;18.13;;;10.80;;
8050;SDS011;4068;42.158;24.732;2022-08-19T03:46:19;14.65;;;10.70;;
8050;SDS011;4068;42.158;24.732;2022-08-19T03:48:50;18.08;;;10.43;;
8050;SDS011;4068;42.158;24.732;2022-08-19T03:51:25;16.20;;;10.07;;
8050;SDS011;4068;42.158;24.732;2022-08-19T03:53:56;14.75;;;10.23;;
8050;SDS011;4068;42.158;24.732;2022-08-19T03:56:23;22.98;;;11.18;;
8050;SDS011;4068;42.158;24.732;2022-08-19T03:58:50;15.13;;;10.02;;
8050;SDS011;4068;42.158;24.732;2022-08-19T04:01:18;21.40;;;10.55;;
8050;SDS011;4068;42.158;24.732;2022-08-19T04:03:45;18.27;;;10.02;;
8050;SDS011;4068;42.158;24.732;2022-08-19T04:06:19;20.85;;;9.55;;
8050;SDS011;4068;42.158;24.732;2022-08-19T04:08:46;14.90;;;9.77;;
8050;SDS011;4068;42.158;24.732;2022-08-19T04:11:14;22.48;;;11.93;;
8050;SDS011;4068;42.158;24.732;2022-08-19T04:13:41;17.40;;;10.55;;
8050;SDS011;4068;42.158;24.732;2022-08-19T04:16:08;21.08;;;10.05;;
8050;SDS011;4068;42.158;24.732;2022-08-19T04:18:35;19.45;;;10.38;;
8050;SDS011;4068;42.158;24.732;2022-08-19T04:21:02;15.80;;;10.07;;
8050;SDS011;4068;42.158;24.732;2022-08-19T04:23:28;12.35;;;9.43;;
8050;SDS011;4068;42.158;24.732;2022-08-19T04:25:53;21.02;;;9.98;;
8050;SDS011;4068;42.158;24.732;2022-08-19T04:28:20;17.77;;;9.43;;
8050;SDS011;4068;42.158;24.732;2022-08-19T04:30:48;17.33;;;9.55;;
8050;SDS011;4068;42.158;24.732;2022-08-19T04:33:16;16.67;;;10.82;;
8050;SDS011;4068;42.158;24.732;2022-08-19T04:35:45;14.98;;;9.63;;
8050;SDS011;4068;42.158;24.732;2022-08-19T04:38:13;17.90;;;9.32;;
8050;SDS011;4068;42.158;24.732;2022-08-19T04:40:40;12.32;;;9.30;;
8050;SDS011;4068;42.158;24.732;2022-08-19T04:43:26;11.73;;;9.77;;
8050;SDS011;4068;42.158;24.732;2022-08-19T04:45:52;15.30;;;8.82;;
8050;SDS011;4068;42.158;24.732;2022-08-19T04:48:17;13.43;;;9.38;;
8050;SDS011;4068;42.158;24.732;2022-08-19T04:50:50;13.23;;;9.48;;
8050;SDS011;4068;42.158;24.732;2022-08-19T04:53:21;11.13;;;8.85;;
8050;SDS011;4068;42.158;24.732;2022-08-19T04:55:47;14.73;;;8.75;;
8050;SDS011;4068;42.158;24.732;2022-08-19T04:58:12;16.80;;;9.15;;
8050;SDS011;4068;42.158;24.732;2022-08-19T05:00:38;15.98;;;9.13;;
8050;SDS011;4068;42.158;24.732;2022-08-19T05:03:04;13.07;;;8.98;;
8050;SDS011;4068;42.158;24.732;2022-08-19T05:05:30;16.83;;;9.65;;
8050;SDS011;4068;42.158;24.732;2022-08-19T05:07:56;18.40;;;10.48;;
8050;SDS011;4068;42.158;24.732;2022-08-19T05:10:22;13.85;;;9.85;;
8050;SDS011;4068;42.158;24.732;2022-08-19T05:12:47;15.40;;;10.07;;
8050;SDS011;4068;42.158;24.732;2022-08-19T05:15:13;19.88;;;10.00;;
8050;SDS011;4068;42.158;24.732;2022-08-19T05:17:38;15.70;;;9.98;;
8050;SDS011;4068;42.158;24.732;2022-08-19T05:20:24;17.20;;;10.35;;
8050;SDS011;4068;42.158;24.732;2022-08-19T05:23:10;18.33;;;10.98;;
8050;SDS011;4068;42.158;24.732;2022-08-19T05:25:38;15.85;;;9.18;;
8050;SDS011;4068;42.158;24.732;2022-08-19T05:28:04;12.20;;;8.15;;
8050;SDS011;4068;42.158;24.732;2022-08-19T05:30:30;15.68;;;8.95;;
8050;SDS011;4068;42.158;24.732;2022-08-19T05:32:55;13.40;;;7.95;;
8050;SDS011;4068;42.158;24.732;2022-08-19T05:35:21;14.52;;;8.27;;
8050;SDS011;4068;42.158;24.732;2022-08-19T05:37:48;15.73;;;8.02;;
8050;SDS011;4068;42.158;24.732;2022-08-19T05:40:14;10.70;;;8.13;;
8050;SDS011;4068;42.158;24.732;2022-08-19T05:42:39;21.25;;;9.18;;
8050;SDS011;4068;42.158;24.732;2022-08-19T05:45:05;10.43;;;7.22;;
8050;SDS011;4068;42.158;24.732;2022-08-19T05:47:31;12.98;;;7.97;;
8050;SDS011;4068;42.158;24.732;2022-08-19T05:49:57;11.40;;;7.85;;
8050;SDS011;4068;42.158;24.732;2022-08-19T05:52:22;14.00;;;8.23;;
8050;SDS011;4068;42.158;24.732;2022-08-19T05:54:47;14.98;;;8.40;;
8050;SDS011;4068;42.158;24.732;2022-08-19T05:57:15;18.50;;;9.40;;
8050;SDS011;4068;42.158;24.732;2022-08-19T05:59:41;13.88;;;9.63;;
8050;SDS011;4068;42.158;24.732;2022-08-19T06:02:07;17.33;;;9.20;;
8050;SDS011;4068;42.158;24.732;2022-08-19T06:04:33;14.32;;;8.10;;
8050;SDS011;4068;42.158;24.732;2022-08-19T06:06:59;9.73;;;8.23;;
8050;SDS011;4068;42.158;24.732;2022-08-19T06:09:26;9.27;;;7.57;;
8050;SDS011;4068;42.158;24.732;2022-08-19T06:11:53;13.15;;;8.50;;
8050;SDS011;4068;42.158;24.732;2022-08-19T06:14:25;12.35;;;8.45;;
8050;SDS011;4068;42.158;24.732;2022-08-19T06:16:52;13.70;;;8.20;;
8050;SDS011;4068;42.158;24.732;2022-08-19T06:19:19;10.88;;;7.38;;
8050;SDS011;4068;42.158;24.732;2022-08-19T06:21:46;8.93;;;7.85;;
8050;SDS011;4068;42.158;24.732;2022-08-19T06:24:14;11.20;;;7.85;;
8050;SDS011;4068;42.158;24.732;2022-08-19T06:26:43;11.20;;;7.78;;
8050;SDS011;4068;42.158;24.732;2022-08-19T06:29:11;11.60;;;7.55;;
8050;SDS011;4068;42.158;24.732;2022-08-19T06:31:43;14.35;;;7.97;;
8050;SDS011;4068;42.158;24.732;2022-08-19T06:34:10;14.60;;;8.48;;
8050;SDS011;4068;42.158;24.732;2022-08-19T06:36:47;12.20;;;7.75;;
8050;SDS011;4068;42.158;24.732;2022-08-19T06:39:15;12.25;;;7.22;;
8050;SDS011;4068;42.158;24.732;2022-08-19T06:41:47;44.40;;;7.95;;
8050;SDS011;4068;42.158;24.732;2022-08-19T06:44:15;11.45;;;8.45;;
8050;SDS011;4068;42.158;24.732;2022-08-19T06:46:41;13.05;;;8.35;;
8050;SDS011;4068;42.158;24.732;2022-08-19T06:49:07;9.38;;;7.47;;
8050;SDS011;4068;42.158;24.732;2022-08-19T06:51:38;12.07;;;8.02;;
8050;SDS011;4068;42.158;24.732;2022-08-19T06:54:08;9.85;;;7.43;;
8050;SDS011;4068;42.158;24.732;2022-08-19T06:56:33;9.70;;;7.75;;
8050;SDS011;4068;42.158;24.732;2022-08-19T07:01:57;11.30;;;7.90;;
8050;SDS011;4068;42.158;24.732;2022-08-19T07:04:26;14.48;;;7.78;;
8050;SDS011;4068;42.158;24.732;2022-08-19T07:06:58;8.93;;;7.10;;
8050;SDS011;4068;42.158;24.732;2022-08-19T07:09:26;8.63;;;6.88;;
8050;SDS011;4068;42.158;24.732;2022-08-19T07:11:52;7.93;;;6.88;;
8050;SDS011;4068;42.158;24.732;2022-08-19T07:14:20;13.93;;;6.82;;
8050;SDS011;4068;42.158;24.732;2022-08-19T07:16:48;11.35;;;7.65;;
8050;SDS011;4068;42.158;24.732;2022-08-19T07:19:15;15.18;;;6.95;;
8050;SDS011;4068;42.158;24.732;2022-08-19T07:21:41;11.40;;;7.20;;
8050;SDS011;4068;42.158;24.732;2022-08-19T07:24:07;14.55;;;6.65;;
8050;SDS011;4068;42.158;24.732;2022-08-19T07:26:39;9.05;;;6.43;;
8050;SDS011;4068;42.158;24.732;2022-08-19T07:29:07;14.07;;;6.18;;
8050;SDS011;4068;42.158;24.732;2022-08-19T07:31:34;8.85;;;6.25;;
8050;SDS011;4068;42.158;24.732;2022-08-19T07:34:03;9.98;;;6.30;;
8050;SDS011;4068;42.158;24.732;2022-08-19T07:36:34;10.48;;;6.65;;
8050;SDS011;4068;42.158;24.732;2022-08-19T07:39:04;6.72;;;5.95;;
8050;SDS011;4068;42.158;24.732;2022-08-19T07:41:32;12.85;;;7.68;;
8050;SDS011;4068;42.158;24.732;2022-08-19T07:44:00;10.80;;;6.55;;
8050;SDS011;4068;42.158;24.732;2022-08-19T07:46:28;7.53;;;5.65;;
8050;SDS011;4068;42.158;24.732;2022-08-19T07:48:57;13.45;;;6.55;;
8050;SDS011;4068;42.158;24.732;2022-08-19T07:51:23;8.85;;;6.53;;
8050;SDS011;4068;42.158;24.732;2022-08-19T07:53:48;10.55;;;7.50;;
8050;SDS011;4068;42.158;24.732;2022-08-19T07:56:16;10.07;;;8.00;;
8050;SDS011;4068;42.158;24.732;2022-08-19T07:58:44;8.07;;;6.63;;
8050;SDS011;4068;42.158;24.732;2022-08-19T08:01:13;10.25;;;6.85;;
8050;SDS011;4068;42.158;24.732;2022-08-19T08:03:43;7.68;;;6.38;;
8050;SDS011;4068;42.158;24.732;2022-08-19T08:06:27;8.88;;;6.47;;
8050;SDS011;4068;42.158;24.732;2022-08-19T08:09:12;10.25;;;6.32;;
8050;SDS011;4068;42.158;24.732;2022-08-19T08:11:50;10.13;;;6.70;;
8050;SDS011;4068;42.158;24.732;2022-08-19T08:14:20;11.15;;;7.35;;
8050;SDS011;4068;42.158;24.732;2022-08-19T08:16:51;12.27;;;7.15;;
8050;SDS011;4068;42.158;24.732;2022-08-19T08:19:17;8.25;;;5.55;;
8050;SDS011;4068;42.158;24.732;2022-08-19T08:21:48;10.50;;;6.57;;
8050;SDS011;4068;42.158;24.732;2022-08-19T08:24:14;10.00;;;6.47;;
8050;SDS011;4068;42.158;24.732;2022-08-19T08:26:40;10.45;;;6.63;;
8050;SDS011;4068;42.158;24.732;2022-08-19T08:29:06;8.20;;;6.07;;
8050;SDS011;4068;42.158;24.732;2022-08-19T08:31:35;6.13;;;5.63;;
8050;SDS011;4068;42.158;24.732;2022-08-19T08:34:00;7.30;;;6.22;;
8050;SDS011;4068;42.158;24.732;2022-08-19T08:36:26;9.27;;;6.13;;
8050;SDS011;4068;42.158;24.732;2022-08-19T08:38:52;7.32;;;6.07;;
8050;SDS011;4068;42.158;24.732;2022-08-19T08:44:02;11.32;;;6.82;;
8050;SDS011;4068;42.158;24.732;2022-08-19T08:46:51;9.73;;;6.95;;
8050;SDS011;4068;42.158;24.732;2022-08-19T08:52:10;8.80;;;6.40;;
8050;SDS011;4068;42.158;24.732;2022-08-19T08:54:41;12.30;;;6.45;;
8050;SDS011;4068;42.158;24.732;2022-08-19T08:57:18;8.73;;;6.05;;
8050;SDS011;4068;42.158;24.732;2022-08-19T08:59:51;10.88;;;6.60;;
8050;SDS011;4068;42.158;24.732;2022-08-19T09:02:22;6.93;;;6.20;;
8050;SDS011;4068;42.158;24.732;2022-08-19T09:04:47;7.60;;;6.38;;
8050;SDS011;4068;42.158;24.732;2022-08-19T09:09:48;7.47;;;5.70;;
8050;SDS011;4068;42.158;24.732;2022-08-19T09:15:06;7.43;;;6.05;;
8050;SDS011;4068;42.158;24.732;2022-08-19T09:17:34;8.10;;;6.38;;
8050;SDS011;4068;42.158;24.732;2022-08-19T09:20:02;10.63;;;6.28;;
8050;SDS011;4068;42.158;24.732;2022-08-19T09:22:38;7.78;;;6.00;;
8050;SDS011;4068;42.158;24.732;2022-08-19T09:25:05;13.55;;;6.75;;
8050;SDS011;4068;42.158;24.732;2022-08-19T09:27:32;6.00;;;5.40;;
8050;SDS011;4068;42.158;24.732;2022-08-19T09:29:58;7.85;;;5.90;;
8050;SDS011;4068;42.158;24.732;2022-08-19T09:32:24;8.88;;;6.50;;
8050;SDS011;4068;42.158;24.732;2022-08-19T09:34:52;10.25;;;7.30;;
8050;SDS011;4068;42.158;24.732;2022-08-19T09:37:23;18.55;;;8.13;;
8050;SDS011;4068;42.158;24.732;2022-08-19T09:39:49;8.38;;;7.57;;
8050;SDS011;4068;42.158;24.732;2022-08-19T09:42:15;11.20;;;7.60;;
8050;SDS011;4068;42.158;24.732;2022-08-19T09:44:41;9.63;;;6.50;;
8050;SDS011;4068;42.158;24.732;2022-08-19T09:47:06;9.30;;;6.78;;
8050;SDS011;4068;42.158;24.732;2022-08-19T09:49:34;14.90;;;6.15;;
8050;SDS011;4068;42.158;24.732;2022-08-19T09:51:59;7.85;;;6.22;;
8050;SDS011;4068;42.158;24.732;2022-08-19T09:54:26;10.57;;;7.15;;
8050;SDS011;4068;42.158;24.732;2022-08-19T09:56:55;8.75;;;6.47;;
8050;SDS011;4068;42.158;24.732;2022-08-19T09:59:23;8.45;;;5.70;;
8050;SDS011;4068;42.158;24.732;2022-08-19T10:01:49;6.05;;;5.38;;
8050;SDS011;4068;42.158;24.732;2022-08-19T10:04:15;8.07;;;5.53;;
8050;SDS011;4068;42.158;24.732;2022-08-19T10:06:40;7.95;;;5.70;;
8050;SDS011;4068;42.158;24.732;2022-08-19T10:09:08;10.55;;;6.07;;
8050;SDS011;4068;42.158;24.732;2022-08-19T10:11:36;7.93;;;5.35;;
8050;SDS011;4068;42.158;24.732;2022-08-19T10:14:04;7.40;;;5.43;;
8050;SDS011;4068;42.158;24.732;2022-08-19T10:16:33;6.53;;;5.10;;
8050;SDS011;4068;42.158;24.732;2022-08-19T10:19:01;8.25;;;5.28;;
8050;SDS011;4068;42.158;24.732;2022-08-19T10:21:28;5.97;;;5.30;;
8050;SDS011;4068;42.158;24.732;2022-08-19T10:23:57;6.32;;;5.35;;
8050;SDS011;4068;42.158;24.732;2022-08-19T10:26:26;5.32;;;4.82;;
8050;SDS011;4068;42.158;24.732;2022-08-19T10:28:54;7.20;;;4.97;;
8050;SDS011;4068;42.158;24.732;2022-08-19T10:31:22;9.07;;;5.45;;
8050;SDS011;4068;42.158;24.732;2022-08-19T10:33:49;6.32;;;4.72;;
8050;SDS011;4068;42.158;24.732;2022-08-19T10:36:20;6.32;;;4.80;;
8050;SDS011;4068;42.158;24.732;2022-08-19T10:38:49;8.90;;;5.35;;
8050;SDS011;4068;42.158;24.732;2022-08-19T10:41:17;6.88;;;5.35;;
8050;SDS011;4068;42.158;24.732;2022-08-19T10:43:47;6.85;;;4.95;;
8050;SDS011;4068;42.158;24.732;2022-08-19T10:46:19;5.90;;;4.95;;
8050;SDS011;4068;42.158;24.732;2022-08-19T10:48:47;6.50;;;5.05;;
8050;SDS011;4068;42.158;24.732;2022-08-19T10:51:12;11.77;;;5.15;;
8050;SDS011;4068;42.158;24.732;2022-08-19T10:53:56;9.05;;;5.30;;
8050;SDS011;4068;42.158;24.732;2022-08-19T10:56:23;6.43;;;4.82;;
8050;SDS011;4068;42.158;24.732;2022-08-19T10:59:07;5.38;;;4.80;;
8050;SDS011;4068;42.158;24.732;2022-08-19T11:01:33;9.75;;;5.20;;
8050;SDS011;4068;42.158;24.732;2022-08-19T11:04:02;15.90;;;5.80;;
8050;SDS011;4068;42.158;24.732;2022-08-19T11:06:30;5.75;;;5.03;;
8050;SDS011;4068;42.158;24.732;2022-08-19T11:08:56;11.43;;;4.28;;
8050;SDS011;4068;42.158;24.732;2022-08-19T11:11:22;8.90;;;4.70;;
8050;SDS011;4068;42.158;24.732;2022-08-19T11:13:48;7.70;;;4.72;;
8050;SDS011;4068;42.158;24.732;2022-08-19T11:16:24;6.38;;;4.70;;
8050;SDS011;4068;42.158;24.732;2022-08-19T11:18:52;5.05;;;4.25;;
8050;SDS011;4068;42.158;24.732;2022-08-19T11:21:24;7.47;;;4.50;;
8050;SDS011;4068;42.158;24.732;2022-08-19T11:24:00;6.07;;;4.57;;
8050;SDS011;4068;42.158;24.732;2022-08-19T11:26:31;7.20;;;5.40;;
8050;SDS011;4068;42.158;24.732;2022-08-19T11:28:58;5.55;;;4.78;;
8050;SDS011;4068;42.158;24.732;2022-08-19T11:31:26;8.73;;;4.90;;
8050;SDS011;4068;42.158;24.732;2022-08-19T11:33:55;6.22;;;4.53;;
8050;SDS011;4068;42.158;24.732;2022-08-19T11:36:22;7.95;;;4.93;;
8050;SDS011;4068;42.158;24.732;2022-08-19T11:38:48;5.18;;;4.63;;
8050;SDS011;4068;42.158;24.732;2022-08-19T11:41:14;6.20;;;4.65;;
8050;SDS011;4068;42.158;24.732;2022-08-19T11:43:41;5.35;;;4.85;;
8050;SDS011;4068;42.158;24.732;2022-08-19T11:46:08;6.75;;;5.03;;
8050;SDS011;4068;42.158;24.732;2022-08-19T11:48:36;7.68;;;4.90;;
8050;SDS011;4068;42.158;24.732;2022-08-19T11:51:03;7.47;;;5.57;;
8050;SDS011;4068;42.158;24.732;2022-08-19T11:53:34;5.95;;;5.13;;
8050;SDS011;4068;42.158;24.732;2022-08-19T11:56:01;11.95;;;5.97;;
8050;SDS011;4068;42.158;24.732;2022-08-19T11:58:27;7.15;;;5.40;;
8050;SDS011;4068;42.158;24.732;2022-08-19T12:00:54;5.95;;;4.97;;
8050;SDS011;4068;42.158;24.732;2022-08-19T12:03:20;7.15;;;5.65;;
8050;SDS011;4068;42.158;24.732;2022-08-19T12:05:46;6.95;;;6.18;;
8050;SDS011;4068;42.158;24.732;2022-08-19T12:08:12;10.25;;;6.68;;
8050;SDS011;4068;42.158;24.732;2022-08-19T12:10:40;7.03;;;4.78;;
8050;SDS011;4068;42.158;24.732;2022-08-19T12:13:07;5.28;;;4.78;;
8050;SDS011;4068;42.158;24.732;2022-08-19T12:15:37;5.70;;;5.20;;
8050;SDS011;4068;42.158;24.732;2022-08-19T12:18:05;8.52;;;5.10;;
8050;SDS011;4068;42.158;24.732;2022-08-19T12:20:33;6.07;;;5.47;;
8050;SDS011;4068;42.158;24.732;2022-08-19T12:23:00;8.23;;;5.18;;
8050;SDS011;4068;42.158;24.732;2022-08-19T12:25:25;5.80;;;5.30;;
8050;SDS011;4068;42.158;24.732;2022-08-19T12:27:51;8.40;;;5.07;;
8050;SDS011;4068;42.158;24.732;2022-08-19T12:30:16;5.97;;;5.35;;
8050;SDS011;4068;42.158;24.732;2022-08-19T12:32:42;6.65;;;5.28;;
8050;SDS011;4068;42.158;24.732;2022-08-19T12:35:08;10.30;;;5.30;;
8050;SDS011;4068;42.158;24.732;2022-08-19T12:37:34;8.80;;;4.93;;
8050;SDS011;4068;42.158;24.732;2022-08-19T12:40:00;6.95;;;5.13;;
8050;SDS011;4068;42.158;24.732;2022-08-19T12:42:25;6.60;;;5.00;;
8050;SDS011;4068;42.158;24.732;2022-08-19T12:44:51;8.02;;;4.85;;
8050;SDS011;4068;42.158;24.732;2022-08-19T12:47:17;6.63;;;5.28;;
8050;SDS011;4068;42.158;24.732;2022-08-19T12:49:43;7.97;;;4.65;;
8050;SDS011;4068;42.158;24.732;2022-08-19T12:52:09;5.43;;;4.90;;
8050;SDS011;4068;42.158;24.732;2022-08-19T12:54:35;6.22;;;5.15;;
8050;SDS011;4068;42.158;24.732;2022-08-19T12:57:05;5.93;;;4.88;;
8050;SDS011;4068;42.158;24.732;2022-08-19T12:59:32;6.20;;;4.90;;
8050;SDS011;4068;42.158;24.732;2022-08-19T13:01:59;7.85;;;5.22;;
8050;SDS011;4068;42.158;24.732;2022-08-19T13:04:25;8.18;;;5.63;;
8050;SDS011;4068;42.158;24.732;2022-08-19T13:06:50;8.70;;;5.05;;
8050;SDS011;4068;42.158;24.732;2022-08-19T13:09:16;8.23;;;5.38;;
8050;SDS011;4068;42.158;24.732;2022-08-19T13:11:41;7.97;;;5.78;;
8050;SDS011;4068;42.158;24.732;2022-08-19T13:14:08;6.05;;;5.35;;
8050;SDS011;4068;42.158;24.732;2022-08-19T13:16:36;6.95;;;5.00;;
8050;SDS011;4068;42.158;24.732;2022-08-19T13:19:02;8.40;;;5.03;;
8050;SDS011;4068;42.158;24.732;2022-08-19T13:21:30;7.30;;;5.70;;
8050;SDS011;4068;42.158;24.732;2022-08-19T13:23:56;11.43;;;5.78;;
8050;SDS011;4068;42.158;24.732;2022-08-19T13:26:22;6.00;;;5.07;;
8050;SDS011;4068;42.158;24.732;2022-08-19T13:28:48;6.05;;;5.45;;
8050;SDS011;4068;42.158;24.732;2022-08-19T13:31:33;6.30;;;4.68;;
8050;SDS011;4068;42.158;24.732;2022-08-19T13:34:19;6.53;;;5.53;;
8050;SDS011;4068;42.158;24.732;2022-08-19T13:36:52;6.93;;;5.10;;
8050;SDS011;4068;42.158;24.732;2022-08-19T13:39:18;9.27;;;5.63;;
8050;SDS011;4068;42.158;24.732;2022-08-19T13:41:45;11.40;;;7.30;;
8050;SDS011;4068;42.158;24.732;2022-08-19T13:44:15;9.20;;;6.25;;
8050;SDS011;4068;42.158;24.732;2022-08-19T13:46:43;11.43;;;5.30;;
8050;SDS011;4068;42.158;24.732;2022-08-19T13:49:10;5.57;;;4.70;;
8050;SDS011;4068;42.158;24.732;2022-08-19T13:51:40;11.88;;;5.50;;
8050;SDS011;4068;42.158;24.732;2022-08-19T13:54:08;9.32;;;6.68;;
8050;SDS011;4068;42.158;24.732;2022-08-19T13:56:35;8.18;;;5.35;;
8050;SDS011;4068;42.158;24.732;2022-08-19T13:59:05;7.45;;;5.00;;
8050;SDS011;4068;42.158;24.732;2022-08-19T14:01:30;7.13;;;4.65;;
8050;SDS011;4068;42.158;24.732;2022-08-19T14:03:56;5.10;;;4.70;;
8050;SDS011;4068;42.158;24.732;2022-08-19T14:06:21;5.90;;;5.22;;
8050;SDS011;4068;42.158;24.732;2022-08-19T14:08:47;6.75;;;4.88;;
8050;SDS011;4068;42.158;24.732;2022-08-19T14:11:13;6.38;;;5.00;;
8050;SDS011;4068;42.158;24.732;2022-08-19T14:13:39;11.63;;;5.80;;
8050;SDS011;4068;42.158;24.732;2022-08-19T14:16:08;6.30;;;5.03;;
8050;SDS011;4068;42.158;24.732;2022-08-19T14:18:36;7.75;;;5.65;;
8050;SDS011;4068;42.158;24.732;2022-08-19T14:21:02;11.00;;;5.82;;
8050;SDS011;4068;42.158;24.732;2022-08-19T14:23:29;8.05;;;7.30;;
8050;SDS011;4068;42.158;24.732;2022-08-19T14:26:02;7.78;;;5.97;;
8050;SDS011;4068;42.158;24.732;2022-08-19T14:28:29;8.40;;;6.28;;
8050;SDS011;4068;42.158;24.732;2022-08-19T14:30:55;14.23;;;10.25;;
8050;SDS011;4068;42.158;24.732;2022-08-19T14:33:20;8.88;;;5.28;;
8050;SDS011;4068;42.158;24.732;2022-08-19T14:35:46;6.88;;;5.20;;
8050;SDS011;4068;42.158;24.732;2022-08-19T14:38:14;8.73;;;5.30;;
8050;SDS011;4068;42.158;24.732;2022-08-19T14:40:42;6.65;;;4.93;;
8050;SDS011;4068;42.158;24.732;2022-08-19T14:43:08;11.10;;;5.75;;
8050;SDS011;4068;42.158;24.732;2022-08-19T14:45:34;14.45;;;5.80;;
8050;SDS011;4068;42.158;24.732;2022-08-19T14:48:02;6.05;;;5.45;;
8050;SDS011;4068;42.158;24.732;2022-08-19T14:50:28;8.95;;;5.10;;
8050;SDS011;4068;42.158;24.732;2022-08-19T14:52:58;7.53;;;4.72;;
8050;SDS011;4068;42.158;24.732;2022-08-19T14:55:29;5.50;;;4.80;;
8050;SDS011;4068;42.158;24.732;2022-08-19T14:57:56;5.88;;;4.95;;
8050;SDS011;4068;42.158;24.732;2022-08-19T15:00:22;9.90;;;5.18;;
8050;SDS011;4068;42.158;24.732;2022-08-19T15:02:50;7.80;;;5.15;;
8050;SDS011;4068;42.158;24.732;2022-08-19T15:05:16;5.60;;;5.07;;
8050;SDS011;4068;42.158;24.732;2022-08-19T15:07:42;7.18;;;5.43;;
8050;SDS011;4068;42.158;24.732;2022-08-19T15:10:08;6.82;;;5.32;;
8050;SDS011;4068;42.158;24.732;2022-08-19T15:12:36;9.38;;;6.22;;
8050;SDS011;4068;42.158;24.732;2022-08-19T15:15:05;8.27;;;5.88;;